Time;durP1;ratioP1;P1;durP2;ratioP2;P2;SDS_P1;SDS_P2;PMS_P1;PMS_P2;Temp;Humidity;BMP_temperature;BMP_pressure;BME280_temperature;BME280_humidity;BME280_pressure;Samples;Min_cycle;Max_cycle;Signal;HPM_P1;HPM_P2
2021/03/14 00:02:16;;;;;;;5.13;3.10;;;;;;;3.36;83.56;98543.56;5104640;27;20031;-73
2021/03/14 00:04:41;;;;;;;5.82;2.92;;;;;;;3.34;83.67;98557.28;5111580;27;20034;-73
2021/03/14 00:07:07;;;;;;;6.00;3.70;;;;;;;3.33;83.95;98550.31;5104586;27;20563;-73
2021/03/14 00:09:32;;;;;;;6.35;3.80;;;;;;;3.30;83.62;98556.22;5113447;27;20027;-74
2021/03/14 00:11:58;;;;;;;5.75;3.38;;;;;;;3.28;83.73;98556.53;5095850;27;20356;-74
2021/03/14 00:14:23;;;;;;;8.25;3.42;;;;;;;3.26;84.17;98557.88;5119813;27;20027;-74
2021/03/14 00:16:52;;;;;;;8.68;3.65;;;;;;;3.23;84.00;98555.75;5126980;27;20027;-74
2021/03/14 00:19:18;;;;;;;8.68;3.97;;;;;;;3.22;84.03;98564.91;5116154;27;20637;-74
2021/03/14 00:21:43;;;;;;;9.20;4.35;;;;;;;3.20;84.29;98569.78;5125766;27;20047;-73
2021/03/14 00:24:09;;;;;;;7.80;3.85;;;;;;;3.16;83.75;98574.09;5135371;27;20032;-73
2021/03/14 00:26:34;;;;;;;8.52;4.18;;;;;;;3.11;83.79;98575.75;5133331;27;20023;-73
2021/03/14 00:29:00;;;;;;;6.70;4.00;;;;;;;3.05;84.16;98571.47;5116149;27;20030;-73
2021/03/14 00:31:26;;;;;;;9.43;4.53;;;;;;;3.00;83.84;98574.22;5124574;27;20039;-73
2021/03/14 00:33:51;;;;;;;7.35;3.95;;;;;;;2.98;84.35;98572.88;5080509;27;20038;-74
2021/03/14 00:36:16;;;;;;;6.40;3.63;;;;;;;2.95;83.96;98584.22;5111960;27;20023;-73
2021/03/14 00:38:42;;;;;;;14.07;4.30;;;;;;;2.91;84.00;98578.56;5127007;27;20384;-73
2021/03/14 00:41:08;;;;;;;10.02;4.05;;;;;;;2.87;84.22;98585.59;5101822;27;20034;-73
2021/03/14 00:43:33;;;;;;;7.50;3.92;;;;;;;2.81;84.06;98583.97;5129932;27;20076;-73
2021/03/14 00:45:58;;;;;;;9.77;4.25;;;;;;;2.77;84.28;98591.81;5132333;27;20039;-73
2021/03/14 00:48:24;;;;;;;12.18;4.55;;;;;;;2.73;84.45;98596.16;5125204;27;20094;-73
2021/03/14 00:50:49;;;;;;;7.45;4.45;;;;;;;2.70;84.37;98606.63;5135158;27;20434;-73
2021/03/14 00:53:15;;;;;;;9.93;4.00;;;;;;;2.64;84.64;98603.97;5094805;27;20023;-73
2021/03/14 00:55:40;;;;;;;10.50;4.53;;;;;;;2.61;83.88;98599.13;5133246;27;20027;-73
2021/03/14 00:58:06;;;;;;;11.75;4.65;;;;;;;2.57;84.58;98608.84;5111030;27;20022;-73
2021/03/14 01:00:31;;;;;;;8.32;4.20;;;;;;;2.53;84.51;98607.78;5133828;27;20317;-73
2021/03/14 01:02:57;;;;;;;9.40;3.90;;;;;;;2.49;84.54;98612.09;5105183;27;20027;-73
2021/03/14 01:05:22;;;;;;;9.48;3.78;;;;;;;2.47;84.53;98619.63;5112368;27;20019;-74
2021/03/14 01:07:47;;;;;;;9.15;3.60;;;;;;;2.42;84.55;98612.38;5110468;27;20102;-73
2021/03/14 01:10:13;;;;;;;7.70;3.58;;;;;;;2.38;84.59;98623.97;5130033;27;20217;-73
2021/03/14 01:12:39;;;;;;;11.98;4.00;;;;;;;2.35;84.79;98627.22;5112640;27;20021;-73
2021/03/14 01:15:08;;;;;;;9.93;4.65;;;;;;;2.32;84.25;98627.72;5116147;27;20019;-74
2021/03/14 01:17:34;;;;;;;9.55;3.80;;;;;;;2.30;84.83;98635.28;5116120;27;20030;-74
2021/03/14 01:19:59;;;;;;;7.43;3.45;;;;;;;2.28;85.22;98629.38;5099452;27;20027;-73
2021/03/14 01:22:25;;;;;;;5.78;3.80;;;;;;;2.25;84.70;98640.66;5134403;27;20041;-74
2021/03/14 01:24:50;;;;;;;7.75;3.88;;;;;;;2.20;84.54;98642.28;5130352;27;20027;-73
2021/03/14 01:27:16;;;;;;;6.78;3.47;;;;;;;2.17;84.98;98648.19;5115622;27;20509;-73
2021/03/14 01:29:41;;;;;;;10.25;4.28;;;;;;;2.15;84.86;98644.16;5113073;27;20062;-74
2021/03/14 01:32:07;;;;;;;11.80;3.90;;;;;;;2.13;84.81;98651.72;5115868;27;20516;-73
2021/03/14 01:34:32;;;;;;;8.95;3.63;;;;;;;2.10;85.28;98652.22;5108580;27;20023;-73
2021/03/14 01:36:58;;;;;;;10.23;4.63;;;;;;;2.07;85.23;98647.41;5134013;27;20023;-73
2021/03/14 01:39:23;;;;;;;7.57;3.63;;;;;;;2.02;84.76;98653.63;5094223;28;20188;-73
2021/03/14 01:41:48;;;;;;;9.45;3.83;;;;;;;1.98;84.61;98653.31;5114194;27;20425;-73
2021/03/14 01:44:14;;;;;;;7.47;3.47;;;;;;;1.95;84.56;98658.44;5132805;27;20515;-73
2021/03/14 01:46:39;;;;;;;9.23;4.75;;;;;;;1.92;84.81;98662.47;5098430;27;20051;-73
2021/03/14 01:49:05;;;;;;;7.93;3.38;;;;;;;1.89;84.96;98659.53;5096879;27;20030;-73
2021/03/14 01:51:33;;;;;;;5.57;3.75;;;;;;;1.87;85.10;98675.09;5098422;27;20067;-73
2021/03/14 01:53:59;;;;;;;7.75;3.08;;;;;;;1.84;84.84;98675.63;5114339;27;20359;-74
2021/03/14 01:56:25;;;;;;;10.43;3.42;;;;;;;1.82;84.63;98683.16;5132326;27;20033;-72
2021/03/14 01:58:50;;;;;;;10.45;4.03;;;;;;;1.78;85.18;98686.38;5105040;27;20032;-73
2021/03/14 02:01:15;;;;;;;7.10;3.45;;;;;;;1.75;84.70;98689.59;5114627;27;20499;-73
2021/03/14 02:03:41;;;;;;;6.97;3.40;;;;;;;1.73;84.83;98685.56;5128697;27;20039;-72
2021/03/14 02:06:06;;;;;;;8.75;3.88;;;;;;;1.69;84.92;98685.31;5133140;27;20053;-73
2021/03/14 02:08:32;;;;;;;5.60;3.28;;;;;;;1.66;84.83;98695.75;5133179;27;20027;-72
2021/03/14 02:10:57;;;;;;;9.10;3.40;;;;;;;1.64;85.27;98693.34;5097396;27;21658;-72
2021/03/14 02:13:26;;;;;;;9.82;3.92;;;;;;;1.60;85.33;98694.94;5107657;28;20380;-73
2021/03/14 02:15:55;;;;;;;6.65;2.88;;;;;;;1.58;85.60;98710.50;5131170;27;20113;-73
2021/03/14 02:18:20;;;;;;;5.97;2.95;;;;;;;1.55;85.14;98706.50;5107709;27;20357;-73
2021/03/14 02:20:45;;;;;;;10.18;3.97;;;;;;;1.54;85.93;98710.25;5115101;27;20045;-73
2021/03/14 02:23:29;;;;;;;8.40;3.70;;;;;;;1.54;85.47;98709.44;5096808;27;20035;-72
2021/03/14 02:26:08;;;;;;;8.15;2.85;;;;;;;1.53;86.04;98718.59;5127692;27;20019;-73
2021/03/14 02:28:35;;;;;;;5.63;3.05;;;;;;;1.52;86.03;98730.38;5126464;27;20019;-72
2021/03/14 02:31:02;;;;;;;6.38;2.88;;;;;;;1.50;85.92;98727.13;5096247;27;20041;-72
2021/03/14 02:33:28;;;;;;;10.15;3.17;;;;;;;1.48;85.46;98734.69;5112058;27;20524;-71
2021/03/14 02:35:53;;;;;;;8.13;2.95;;;;;;;1.48;85.98;98740.84;5114485;27;20030;-72
2021/03/14 02:38:19;;;;;;;6.07;3.53;;;;;;;1.46;85.96;98734.94;5096422;27;20046;-72
2021/03/14 02:40:44;;;;;;;5.13;2.90;;;;;;;1.46;85.63;98744.88;5113486;27;20027;-73
2021/03/14 02:43:10;;;;;;;6.80;3.40;;;;;;;1.45;86.05;98751.31;5095690;27;20030;-72
2021/03/14 02:45:35;;;;;;;6.50;3.00;;;;;;;1.44;85.30;98760.41;5097369;27;20039;-72
2021/03/14 02:48:02;;;;;;;9.50;3.67;;;;;;;1.41;85.65;98769.81;5096073;27;20096;-72
2021/03/14 02:50:27;;;;;;;6.30;3.17;;;;;;;1.40;85.89;98767.41;5094510;28;20628;-72
2021/03/14 02:52:53;;;;;;;12.20;4.25;;;;;;;1.38;85.83;98774.91;5092872;27;20031;-72
2021/03/14 02:55:21;;;;;;;10.48;3.35;;;;;;;1.37;85.46;98773.31;5095989;27;20056;-72
2021/03/14 02:57:46;;;;;;;8.38;3.25;;;;;;;1.34;85.67;98780.00;5114176;27;20392;-72
2021/03/14 03:00:14;;;;;;;8.07;3.28;;;;;;;1.32;85.64;98791.00;5104319;27;20027;-72
2021/03/14 03:02:39;;;;;;;8.88;3.58;;;;;;;1.31;85.72;98797.44;5131321;27;20031;-72
2021/03/14 03:05:07;;;;;;;9.30;3.25;;;;;;;1.28;86.02;98806.00;5093470;28;20064;-73
2021/03/14 03:07:32;;;;;;;4.32;2.53;;;;;;;1.25;85.96;98809.19;5092830;27;20061;-72
2021/03/14 03:09:58;;;;;;;7.80;3.20;;;;;;;1.25;85.90;98808.41;5096021;28;20037;-72
2021/03/14 03:12:23;;;;;;;5.93;2.75;;;;;;;1.24;85.86;98812.97;5123083;28;20361;-72
2021/03/14 03:14:50;;;;;;;8.07;3.20;;;;;;;1.22;86.00;98815.09;5111397;28;20023;-72
2021/03/14 03:17:16;;;;;;;6.13;2.80;;;;;;;1.22;85.95;98816.97;5099926;28;20476;-72
2021/03/14 03:19:41;;;;;;;6.05;3.13;;;;;;;1.22;86.03;98823.13;5128384;28;20027;-72
2021/03/14 03:22:07;;;;;;;5.68;3.03;;;;;;;1.23;86.17;98832.81;5111452;28;20369;-72
2021/03/14 03:24:32;;;;;;;7.25;3.38;;;;;;;1.23;86.16;98827.47;5094422;28;20085;-73
2021/03/14 03:26:57;;;;;;;8.68;3.05;;;;;;;1.20;85.91;98833.34;5114351;28;20030;-72
2021/03/14 03:29:23;;;;;;;4.65;2.83;;;;;;;1.19;86.28;98836.28;5130889;28;20031;-73
2021/03/14 03:31:48;;;;;;;8.07;3.58;;;;;;;1.17;86.02;98841.09;5132329;28;20027;-72
2021/03/14 03:34:14;;;;;;;6.25;2.47;;;;;;;1.14;85.89;98853.16;5105832;28;20028;-72
2021/03/14 03:36:40;;;;;;;4.70;2.92;;;;;;;1.12;85.89;98852.63;5093557;28;20042;-72
2021/03/14 03:39:07;;;;;;;5.43;2.50;;;;;;;1.09;86.69;98848.59;5126625;27;20027;-72
2021/03/14 03:41:32;;;;;;;7.40;3.03;;;;;;;1.08;86.52;98859.56;5131519;28;20023;-72
2021/03/14 03:43:58;;;;;;;9.60;2.90;;;;;;;1.06;86.14;98859.00;5095742;28;20635;-72
2021/03/14 03:46:23;;;;;;;5.82;2.85;;;;;;;1.05;86.19;98865.44;5104817;28;20130;-72
2021/03/14 03:48:50;;;;;;;6.10;2.22;;;;;;;1.03;86.44;98864.88;5113067;28;20031;-72
2021/03/14 03:51:29;;;;;;;7.22;3.10;;;;;;;1.00;86.34;98870.78;5132161;28;20106;-72
2021/03/14 03:53:56;;;;;;;6.00;2.55;;;;;;;0.99;86.29;98885.28;5129891;27;20041;-72
2021/03/14 03:56:22;;;;;;;8.43;4.25;;;;;;;0.95;86.23;98889.53;5093664;28;20031;-72
2021/03/14 03:58:47;;;;;;;10.95;3.53;;;;;;;0.93;85.87;98891.63;5107168;28;20097;-72
2021/03/14 04:01:12;;;;;;;5.75;2.97;;;;;;;0.91;85.99;98899.16;5112384;27;20495;-74
2021/03/14 04:03:40;;;;;;;6.47;3.50;;;;;;;0.89;86.50;98899.41;5094640;28;20549;-72
2021/03/14 04:06:05;;;;;;;8.82;4.72;;;;;;;0.87;86.33;98902.34;5113962;28;20011;-72
2021/03/14 04:08:31;;;;;;;6.70;3.13;;;;;;;0.83;86.01;98909.28;5112807;27;20075;-72
2021/03/14 04:10:56;;;;;;;7.07;3.30;;;;;;;0.81;86.05;98914.09;5095916;28;20035;-72
2021/03/14 04:13:22;;;;;;;10.88;3.22;;;;;;;0.78;86.07;98911.91;5111250;28;20027;-72
2021/03/14 04:15:47;;;;;;;7.25;3.20;;;;;;;0.78;85.77;98917.28;5108013;28;20027;-72
2021/03/14 04:18:12;;;;;;;11.90;3.78;;;;;;;0.75;86.17;98915.13;5113540;28;20083;-72
2021/03/14 04:20:39;;;;;;;10.73;3.55;;;;;;;0.74;86.22;98918.88;5103570;28;20638;-72
2021/03/14 04:23:16;;;;;;;6.07;3.50;;;;;;;0.71;86.38;98922.06;5111454;28;20468;-72
2021/03/14 04:25:42;;;;;;;10.27;3.15;;;;;;;0.71;86.35;98926.59;5107356;27;20041;-72
2021/03/14 04:28:08;;;;;;;8.02;3.50;;;;;;;0.71;86.40;98927.44;5116481;27;20039;-72
2021/03/14 04:30:33;;;;;;;7.30;3.38;;;;;;;0.73;86.73;98940.56;5116518;27;20030;-72
2021/03/14 04:32:59;;;;;;;8.57;3.40;;;;;;;0.72;86.42;98939.78;5135505;27;20433;-72
2021/03/14 04:35:24;;;;;;;9.35;3.15;;;;;;;0.71;86.28;98946.22;5095072;28;20581;-72
2021/03/14 04:37:50;;;;;;;9.68;3.15;;;;;;;0.69;86.08;98959.06;5096065;28;20039;-72
2021/03/14 04:40:15;;;;;;;6.50;2.60;;;;;;;0.66;86.57;98957.69;5116024;27;20072;-72
2021/03/14 04:42:44;;;;;;;8.20;4.13;;;;;;;0.65;86.21;98965.97;5135460;27;20111;-73
2021/03/14 04:45:10;;;;;;;7.43;3.03;;;;;;;0.64;86.48;98969.72;5095693;28;20119;-72
2021/03/14 04:47:35;;;;;;;8.10;3.60;;;;;;;0.61;86.02;98971.03;5104412;27;20480;-72
2021/03/14 04:50:03;;;;;;;9.43;3.10;;;;;;;0.61;86.26;98970.25;5098696;27;20495;-72
2021/03/14 04:52:28;;;;;;;6.80;3.28;;;;;;;0.61;86.33;98970.25;5116719;27;20035;-72
2021/03/14 04:54:54;;;;;;;5.20;3.13;;;;;;;0.60;86.38;98968.59;5096088;28;20035;-72
2021/03/14 04:57:20;;;;;;;7.57;3.45;;;;;;;0.58;86.38;98979.59;5092071;27;20031;-72
2021/03/14 04:59:45;;;;;;;6.07;3.38;;;;;;;0.58;86.13;98981.47;5134117;27;20027;-72
2021/03/14 05:02:11;;;;;;;9.70;2.95;;;;;;;0.58;86.51;98992.19;5096315;28;20062;-72
2021/03/14 05:04:37;;;;;;;8.25;3.42;;;;;;;0.58;86.47;98986.84;5095096;27;20016;-73
2021/03/14 05:07:02;;;;;;;7.25;2.90;;;;;;;0.59;86.17;98993.81;5116426;27;20373;-72
2021/03/14 05:09:28;;;;;;;10.45;3.47;;;;;;;0.59;86.29;99012.56;5115178;27;20061;-72
2021/03/14 05:11:53;;;;;;;9.32;2.88;;;;;;;0.58;86.33;99013.66;5095616;28;20035;-72
2021/03/14 05:14:19;;;;;;;10.70;3.95;;;;;;;0.61;86.32;99013.94;5092955;27;20023;-72
2021/03/14 05:16:44;;;;;;;10.63;4.97;;;;;;;0.64;85.84;99015.31;5113732;27;20042;-72
2021/03/14 05:19:09;;;;;;;9.27;3.90;;;;;;;0.66;86.08;99021.25;5113764;27;20027;-72
2021/03/14 05:21:35;;;;;;;7.80;3.78;;;;;;;0.68;86.13;99029.81;5094134;27;20030;-73
2021/03/14 05:24:00;;;;;;;6.95;3.90;;;;;;;0.70;86.52;99032.25;5130941;27;20033;-72
2021/03/14 05:26:26;;;;;;;7.57;3.50;;;;;;;0.73;86.20;99032.56;5112603;27;20030;-73
2021/03/14 05:28:51;;;;;;;9.32;4.40;;;;;;;0.77;86.56;99039.06;5096872;27;20020;-72
2021/03/14 05:31:33;;;;;;;7.18;3.80;;;;;;;0.81;86.74;99045.53;5116283;27;20418;-72
2021/03/14 05:34:00;;;;;;;9.18;3.90;;;;;;;0.88;86.47;99056.88;5115234;27;20022;-72
2021/03/14 05:36:26;;;;;;;10.15;3.42;;;;;;;0.96;86.79;99062.84;5114644;27;20063;-72
2021/03/14 05:38:52;;;;;;;9.07;3.80;;;;;;;1.01;86.88;99068.25;5113683;27;20027;-72
2021/03/14 05:41:18;;;;;;;10.45;3.80;;;;;;;1.04;86.07;99063.22;5110053;27;20027;-74
2021/03/14 05:43:43;;;;;;;6.93;3.10;;;;;;;1.09;86.64;99071.31;5114983;27;20027;-74
2021/03/14 05:46:12;;;;;;;15.77;4.50;;;;;;;1.14;86.18;99080.47;5112292;27;20055;-74
2021/03/14 05:48:37;;;;;;;7.80;3.92;;;;;;;1.18;86.70;99081.59;5133630;27;20019;-74
2021/03/14 05:51:03;;;;;;;7.57;3.70;;;;;;;1.21;86.03;99079.19;5113953;27;20217;-71
2021/03/14 05:53:30;;;;;;;7.47;3.72;;;;;;;1.26;86.63;99083.81;5098685;27;20464;-71
2021/03/14 05:55:55;;;;;;;10.48;3.60;;;;;;;1.27;86.31;99086.22;5114481;27;20021;-72
2021/03/14 05:58:20;;;;;;;13.55;4.15;;;;;;;1.30;86.39;99098.31;5096279;27;20039;-72
2021/03/14 06:00:46;;;;;;;7.05;3.35;;;;;;;1.32;86.85;99090.84;5131679;27;20019;-71
2021/03/14 06:03:12;;;;;;;7.75;4.00;;;;;;;1.31;86.82;99098.09;5115405;27;20084;-71
2021/03/14 06:05:37;;;;;;;9.55;3.35;;;;;;;1.32;86.86;99101.56;5122146;27;20023;-71
2021/03/14 06:08:03;;;;;;;8.02;3.25;;;;;;;1.31;86.72;99119.56;5093377;28;20047;-72
2021/03/14 06:10:28;;;;;;;7.38;3.53;;;;;;;1.31;86.60;99113.38;5130603;27;20027;-72
2021/03/14 06:12:54;;;;;;;7.80;3.28;;;;;;;1.30;86.71;99122.50;5115242;27;20435;-72
2021/03/14 06:15:19;;;;;;;9.25;3.20;;;;;;;1.31;86.63;99124.94;5111992;27;20072;-72
2021/03/14 06:17:45;;;;;;;9.80;3.45;;;;;;;1.32;86.82;99118.47;5109989;27;20038;-72
2021/03/14 06:20:35;;;;;;;9.60;3.50;;;;;;;1.35;86.57;99116.38;5095135;27;20102;-72
2021/03/14 06:23:19;;;;;;;9.90;2.95;;;;;;;1.38;86.79;99123.91;5110173;27;20027;-72
2021/03/14 06:25:46;;;;;;;6.18;3.20;;;;;;;1.42;87.01;99130.38;5110091;27;20023;-72
2021/03/14 06:28:12;;;;;;;9.10;3.42;;;;;;;1.44;86.63;99136.31;5127630;27;20493;-72
2021/03/14 06:30:40;;;;;;;9.70;5.50;;;;;;;1.47;86.58;99141.16;5128277;27;20023;-72
2021/03/14 06:33:12;;;;;;;9.02;4.18;;;;;;;1.47;86.31;99149.22;5113123;27;20023;-72
2021/03/14 06:35:51;;;;;;;6.57;3.25;;;;;;;1.46;86.60;99147.63;5104778;27;20039;-72
2021/03/14 06:38:16;;;;;;;7.88;3.38;;;;;;;1.45;86.77;99159.44;5092122;27;20035;-72
2021/03/14 06:40:42;;;;;;;10.05;4.80;;;;;;;1.43;86.30;99172.28;5130982;27;20376;-71
2021/03/14 06:43:12;;;;;;;6.85;2.90;;;;;;;1.42;86.19;99163.44;5111405;27;20031;-71
2021/03/14 06:45:39;;;;;;;6.35;3.20;;;;;;;1.42;86.65;99170.66;5125005;27;20518;-72
2021/03/14 06:48:05;;;;;;;6.05;3.63;;;;;;;1.41;86.17;99177.91;5130039;27;20019;-74
2021/03/14 06:50:30;;;;;;;7.75;3.78;;;;;;;1.43;87.00;99177.66;5110274;27;20088;-73
2021/03/14 06:53:15;;;;;;;7.43;3.38;;;;;;;1.45;86.37;99178.22;5131244;27;20472;-72
2021/03/14 06:55:41;;;;;;;7.88;3.30;;;;;;;1.49;86.16;99184.69;5129956;27;20525;-72
2021/03/14 06:58:28;;;;;;;5.65;3.38;;;;;;;1.54;86.46;99187.44;5107568;28;20027;-71
2021/03/14 07:01:12;;;;;;;4.60;2.92;;;;;;;1.59;86.83;99195.53;5109344;27;20020;-72
2021/03/14 07:03:45;;;;;;;10.52;6.13;;;;;;;1.65;86.70;99196.41;5131686;27;20428;-72
2021/03/14 07:06:23;;;;;;;8.20;3.20;;;;;;;1.69;86.52;99197.50;5129477;27;20102;-72
2021/03/14 07:09:08;;;;;;;6.15;3.50;;;;;;;1.72;87.04;99205.88;5114125;28;20031;-71
2021/03/14 07:11:45;;;;;;;9.15;3.85;;;;;;;1.73;86.12;99207.50;5127314;27;20407;-72
2021/03/14 07:14:12;;;;;;;8.18;3.20;;;;;;;1.78;86.25;99217.47;5096976;28;20064;-72
2021/03/14 07:16:50;;;;;;;9.93;3.40;;;;;;;1.84;86.08;99223.72;5111167;28;20528;-72
2021/03/14 07:19:24;;;;;;;6.13;3.22;;;;;;;1.89;86.30;99231.81;5131398;28;20030;-72
2021/03/14 07:22:06;;;;;;;10.45;2.88;;;;;;;1.92;86.43;99236.69;5108891;27;20075;-72
2021/03/14 07:24:36;;;;;;;8.35;3.00;;;;;;;1.96;85.97;99238.63;5098896;28;20515;-72
2021/03/14 07:27:03;;;;;;;5.80;3.13;;;;;;;1.99;86.95;99243.47;5112781;28;20080;-72
2021/03/14 07:29:29;;;;;;;6.57;3.28;;;;;;;2.02;86.46;99234.09;5114305;28;20023;-72
2021/03/14 07:31:55;;;;;;;6.47;2.58;;;;;;;2.05;86.50;99247.03;5112235;28;20396;-73
2021/03/14 07:34:20;;;;;;;7.53;3.40;;;;;;;2.09;86.47;99245.44;5085978;27;20476;-72
2021/03/14 07:36:46;;;;;;;8.40;2.65;;;;;;;2.13;86.28;99259.19;5093497;28;20073;-72
2021/03/14 07:39:11;;;;;;;7.97;2.80;;;;;;;2.15;86.21;99257.84;5112558;28;20031;-72
2021/03/14 07:41:37;;;;;;;7.00;2.75;;;;;;;2.19;85.78;99268.91;5109874;28;20019;-72
2021/03/14 07:44:02;;;;;;;7.25;2.83;;;;;;;2.22;86.06;99274.56;5129989;27;20400;-74
2021/03/14 07:46:28;;;;;;;5.95;2.60;;;;;;;2.27;86.52;99276.50;5111169;28;20496;-72
2021/03/14 07:48:53;;;;;;;6.57;3.00;;;;;;;2.33;86.66;99288.13;5094985;28;20091;-73
2021/03/14 07:51:20;;;;;;;4.43;2.30;;;;;;;2.38;86.19;99280.09;5109327;27;20034;-72
2021/03/14 07:53:46;;;;;;;10.52;2.63;;;;;;;2.47;86.41;99286.59;5093274;28;20128;-72
2021/03/14 07:56:11;;;;;;;8.07;3.67;;;;;;;2.56;86.42;99290.44;5110227;28;20413;-72
2021/03/14 07:58:37;;;;;;;10.05;3.20;;;;;;;2.69;86.62;99293.75;5107083;27;20019;-73
2021/03/14 08:01:27;;;;;;;6.82;3.05;;;;;;;2.80;86.15;99290.88;5092769;27;20101;-74
2021/03/14 08:03:53;;;;;;;10.63;2.80;;;;;;;2.90;86.18;99306.28;5110311;27;20024;-72
2021/03/14 08:06:43;;;;;;;5.25;2.88;;;;;;;2.95;85.92;99303.63;5093159;27;20067;-71
2021/03/14 08:09:09;;;;;;;5.25;2.70;;;;;;;2.98;85.93;99299.59;5123938;27;20038;-73
2021/03/14 08:11:34;;;;;;;7.60;3.45;;;;;;;2.98;86.06;99296.91;5112494;27;20019;-73
2021/03/14 08:14:00;;;;;;;7.05;2.65;;;;;;;2.98;86.00;99296.91;5124009;27;20061;-73
2021/03/14 08:16:25;;;;;;;5.07;2.58;;;;;;;2.99;86.20;99304.72;5094059;27;20489;-74
2021/03/14 08:18:52;;;;;;;5.05;2.60;;;;;;;3.01;85.60;99313.34;5108384;27;20030;-73
2021/03/14 08:21:20;;;;;;;5.78;2.80;;;;;;;3.07;85.53;99312.31;5126580;27;20027;-73
2021/03/14 08:23:47;;;;;;;7.10;3.00;;;;;;;3.15;85.54;99329.84;5127025;27;20222;-73
2021/03/14 08:26:24;;;;;;;4.10;2.30;;;;;;;3.25;85.91;99331.81;5109953;27;20030;-73
2021/03/14 08:29:04;;;;;;;7.35;3.00;;;;;;;3.33;85.58;99342.09;5125221;27;20027;-74
2021/03/14 08:31:49;;;;;;;6.22;2.70;;;;;;;3.44;85.17;99342.94;5126783;27;20028;-73
2021/03/14 08:34:18;;;;;;;3.53;2.50;;;;;;;3.53;85.22;99346.75;5108799;27;20019;-73
2021/03/14 08:36:44;;;;;;;3.55;2.13;;;;;;;3.63;84.96;99356.75;5114901;27;20027;-74
2021/03/14 08:39:29;;;;;;;6.85;2.50;;;;;;;3.71;84.97;99358.94;5108079;27;20080;-74
2021/03/14 08:41:59;;;;;;;6.22;2.60;;;;;;;3.75;84.80;99365.44;5113944;27;20655;-73
2021/03/14 08:44:46;;;;;;;7.13;2.63;;;;;;;3.78;85.12;99364.91;5098148;27;20030;-73
2021/03/14 08:47:25;;;;;;;8.73;2.80;;;;;;;3.84;85.44;99358.44;5112950;28;20515;-73
2021/03/14 08:49:55;;;;;;;5.60;2.15;;;;;;;3.88;84.77;99364.16;5107999;27;20031;-73
2021/03/14 08:52:22;;;;;;;5.07;2.60;;;;;;;3.97;84.79;99370.63;5108658;28;20036;-73
2021/03/14 08:54:51;;;;;;;7.57;2.63;;;;;;;4.08;84.84;99372.28;5108016;28;20020;-72
2021/03/14 08:57:17;;;;;;;4.82;2.28;;;;;;;4.21;84.92;99368.28;5109138;28;20072;-73
2021/03/14 08:59:47;;;;;;;6.00;2.80;;;;;;;4.37;84.53;99367.22;5111497;28;20016;-73
2021/03/14 09:02:19;;;;;;;8.15;2.40;;;;;;;4.49;84.80;99369.66;5095651;28;20032;-73
2021/03/14 09:04:44;;;;;;;5.07;2.35;;;;;;;4.62;84.50;99379.13;5112067;28;20464;-72
2021/03/14 09:07:10;;;;;;;6.60;2.28;;;;;;;4.66;84.42;99380.19;5090889;28;20035;-73
2021/03/14 09:09:36;;;;;;;8.95;2.63;;;;;;;4.71;84.12;99391.00;5108418;28;20076;-73
2021/03/14 09:12:11;;;;;;;6.43;2.58;;;;;;;4.71;84.01;99393.69;5103391;28;20171;-73
2021/03/14 09:14:38;;;;;;;10.63;2.65;;;;;;;4.77;84.26;99398.00;5108225;28;20020;-73
2021/03/14 09:17:13;;;;;;;7.75;2.45;;;;;;;4.79;83.97;99390.47;5106069;28;20024;-73
2021/03/14 09:19:42;;;;;;;6.82;2.20;;;;;;;4.81;84.05;99401.81;5110661;28;20895;-73
2021/03/14 09:22:18;;;;;;;6.63;2.40;;;;;;;4.75;84.08;99400.19;5107135;28;20024;-73
2021/03/14 09:24:50;;;;;;;8.73;2.50;;;;;;;4.70;83.94;99402.06;5099433;28;20555;-73
2021/03/14 09:27:29;;;;;;;5.93;2.88;;;;;;;4.64;84.08;99410.16;5104769;28;20036;-72
2021/03/14 09:30:14;;;;;;;9.77;2.78;;;;;;;4.58;84.03;99410.41;5092613;28;20202;-73
2021/03/14 09:33:02;;;;;;;6.80;2.83;;;;;;;4.58;84.19;99413.13;5108449;28;20022;-74
2021/03/14 09:35:35;;;;;;;11.75;2.90;;;;;;;4.60;84.06;99413.66;5109278;28;20477;-73
2021/03/14 09:38:11;;;;;;;6.85;2.35;;;;;;;4.57;83.89;99425.00;5106610;28;20023;-73
2021/03/14 09:40:46;;;;;;;9.80;3.10;;;;;;;4.55;83.88;99424.44;5109055;28;20084;-73
2021/03/14 09:43:25;;;;;;;6.35;2.50;;;;;;;4.52;84.23;99415.00;5109321;28;20034;-73
2021/03/14 09:45:57;;;;;;;9.40;2.58;;;;;;;4.54;84.41;99420.94;5108251;27;20068;-73
2021/03/14 09:48:27;;;;;;;8.50;2.67;;;;;;;4.57;84.10;99431.19;5108274;27;20023;-74
2021/03/14 09:50:52;;;;;;;9.35;3.40;;;;;;;4.60;84.18;99425.25;5126529;27;20031;-73
2021/03/14 09:53:26;;;;;;;6.72;2.80;;;;;;;4.68;84.20;99423.94;5106811;27;20035;-73
2021/03/14 09:55:53;;;;;;;10.98;3.42;;;;;;;4.76;84.12;99425.28;5111836;27;20031;-73
2021/03/14 09:58:20;;;;;;;8.48;3.35;;;;;;;4.85;84.02;99435.28;5110208;27;20027;-74
2021/03/14 10:00:47;;;;;;;9.20;2.63;;;;;;;4.89;83.87;99435.56;5115079;27;20011;-74
2021/03/14 10:03:17;;;;;;;8.48;3.08;;;;;;;4.92;83.85;99440.44;5106929;27;20057;-74
2021/03/14 10:05:49;;;;;;;9.80;3.10;;;;;;;5.00;83.93;99439.09;5098152;27;20106;-74
2021/03/14 10:08:25;;;;;;;7.47;2.50;;;;;;;5.10;83.92;99439.06;5112767;27;20027;-74
2021/03/14 10:11:13;;;;;;;5.93;2.90;;;;;;;5.20;83.85;99444.47;5132152;27;20380;-74
2021/03/14 10:13:38;;;;;;;6.68;2.92;;;;;;;5.29;83.78;99442.03;5130793;27;20374;-74
2021/03/14 10:16:05;;;;;;;9.20;3.90;;;;;;;5.39;83.74;99452.03;5126686;27;20027;-74
2021/03/14 10:18:31;;;;;;;13.05;4.18;;;;;;;5.51;83.74;99458.78;5094014;27;20050;-74
2021/03/14 10:21:16;;;;;;;6.57;2.80;;;;;;;5.57;83.47;99464.97;5114916;27;20106;-74
2021/03/14 10:23:41;;;;;;;11.15;3.70;;;;;;;5.56;83.36;99463.34;5113192;27;20019;-73
2021/03/14 10:26:11;;;;;;;9.35;3.90;;;;;;;5.61;83.43;99468.75;5113337;27;20494;-74
2021/03/14 10:28:37;;;;;;;15.23;4.03;;;;;;;5.67;83.21;99467.63;5111651;27;20033;-75
2021/03/14 10:31:03;;;;;;;11.55;3.88;;;;;;;5.70;83.32;99471.69;5132179;27;20056;-74
2021/03/14 10:33:34;;;;;;;13.07;4.10;;;;;;;5.67;83.31;99470.34;5131168;27;20068;-75
2021/03/14 10:36:09;;;;;;;11.90;4.05;;;;;;;5.70;83.37;99468.97;5094605;27;20022;-74
2021/03/14 10:38:50;;;;;;;11.38;3.90;;;;;;;5.74;83.19;99476.28;5109196;27;20023;-74
2021/03/14 10:41:20;;;;;;;18.10;4.50;;;;;;;5.81;83.31;99476.00;5101854;27;20415;-74
2021/03/14 10:43:46;;;;;;;10.68;4.05;;;;;;;5.88;83.43;99475.72;5113546;27;20106;-74
2021/03/14 10:46:12;;;;;;;14.40;3.97;;;;;;;5.97;83.27;99474.09;5113065;27;20059;-74
2021/03/14 10:48:37;;;;;;;12.07;3.78;;;;;;;6.02;83.21;99476.78;5112043;27;20396;-74
2021/03/14 10:51:04;;;;;;;11.00;4.18;;;;;;;6.07;83.03;99482.19;5114134;27;20023;-73
2021/03/14 10:53:30;;;;;;;14.98;4.18;;;;;;;6.15;83.08;99489.72;5128614;27;20380;-73
2021/03/14 10:56:06;;;;;;;16.40;4.30;;;;;;;6.19;82.80;99488.09;5127328;27;20026;-73
2021/03/14 10:58:39;;;;;;;12.30;4.65;;;;;;;6.29;83.24;99494.53;5109488;27;20102;-73
2021/03/14 11:01:05;;;;;;;7.97;4.25;;;;;;;6.33;82.48;99484.78;5131064;27;20031;-73
2021/03/14 11:03:36;;;;;;;16.23;4.45;;;;;;;6.38;82.69;99482.88;5128106;27;20027;-73
2021/03/14 11:06:16;;;;;;;11.68;3.15;;;;;;;6.44;82.39;99494.50;5112578;27;20023;-72
2021/03/14 11:09:09;;;;;;;17.98;4.38;;;;;;;6.50;82.49;99498.78;5109115;28;20053;-74
2021/03/14 11:11:39;;;;;;;9.27;3.80;;;;;;;6.59;82.29;99491.69;5109992;27;20027;-74
2021/03/14 11:14:24;;;;;;;12.07;3.67;;;;;;;6.75;82.12;99488.91;5112243;27;20019;-74
2021/03/14 11:17:14;;;;;;;15.52;4.28;;;;;;;6.77;81.86;99498.38;5121135;28;20039;-74
2021/03/14 11:19:44;;;;;;;11.00;3.85;;;;;;;6.76;81.56;99495.94;5101804;28;20106;-74
2021/03/14 11:22:12;;;;;;;13.23;3.83;;;;;;;6.81;81.90;99498.59;5114536;28;20075;-74
2021/03/14 11:24:37;;;;;;;11.10;3.90;;;;;;;6.92;81.73;99508.28;5131691;28;20019;-75
2021/03/14 11:27:03;;;;;;;14.57;4.00;;;;;;;6.99;81.14;99506.09;5114521;28;20433;-74
2021/03/14 11:29:28;;;;;;;10.88;4.13;;;;;;;7.09;81.38;99508.72;5123979;27;20027;-74
2021/03/14 11:31:54;;;;;;;13.73;3.83;;;;;;;7.11;80.68;99514.66;5114416;28;20072;-74
2021/03/14 11:34:19;;;;;;;11.38;4.38;;;;;;;7.13;81.14;99506.25;5130735;27;20023;-74
2021/03/14 11:36:45;;;;;;;13.77;3.92;;;;;;;7.20;80.35;99514.88;5115951;27;20027;-75
2021/03/14 11:39:10;;;;;;;8.55;3.97;;;;;;;7.17;80.55;99511.91;5132654;27;20080;-74
2021/03/14 11:41:36;;;;;;;12.27;3.92;;;;;;;7.22;80.68;99511.88;5136697;27;20105;-74
2021/03/14 11:44:01;;;;;;;10.43;4.03;;;;;;;7.36;80.28;99510.13;5135509;27;20034;-75
2021/03/14 11:46:27;;;;;;;14.43;5.07;;;;;;;7.46;80.04;99515.47;5091522;27;20055;-74